createdAt,value
2017-02-12T02:38:02.483Z,1032.345
2017-02-12T07:04:27.448Z,1034.212
2017-02-12T07:07:31.278Z,1034.264
2017-02-12T07:19:44.753Z,1034.367
2017-02-12T07:22:47.825Z,1034.435
2017-02-12T07:34:56.641Z,1034.610
2017-02-12T07:38:01.385Z,1034.665
2017-02-12T07:41:06.260Z,1034.734
2017-02-12T07:44:17.221Z,1034.720
2017-02-12T07:47:21.517Z,1034.819
2017-02-12T07:53:29.279Z,1034.851
2017-02-12T07:56:31.957Z,1034.845
2017-02-12T08:02:40.828Z,1034.912
2017-02-12T08:05:43.937Z,1034.960
2017-02-12T08:14:49.000Z,1034.909
2017-02-12T08:36:24.668Z,1035.178
2017-02-12T08:39:28.115Z,1035.208
2017-02-12T08:42:30.635Z,1035.235
2017-02-12T08:45:33.842Z,1035.289
2017-02-12T08:48:37.252Z,1035.317
2017-02-12T08:51:41.110Z,1035.268
2017-02-12T08:54:45.586Z,1035.237
2017-02-12T08:57:49.371Z,1035.215
2017-02-12T09:03:55.701Z,1035.327
2017-02-12T09:06:58.413Z,1035.344
2017-02-12T09:19:02.099Z,1035.354
2017-02-12T09:37:25.921Z,1035.530
2017-02-12T09:40:29.035Z,1035.550
2017-02-12T09:43:32.516Z,1035.564
2017-02-12T09:49:39.991Z,1035.649
2017-02-12T09:52:43.141Z,1035.650
2017-02-12T09:55:48.223Z,1035.672
2017-02-12T10:05:02.421Z,1035.670
2017-02-12T10:08:05.873Z,1035.636
2017-02-12T10:14:13.751Z,1035.599
2017-02-12T10:17:15.998Z,1035.628
2017-02-12T10:20:17.935Z,1035.617
2017-02-12T10:23:21.468Z,1035.622
2017-02-12T10:26:25.266Z,1035.657
2017-02-12T10:29:27.509Z,1035.752
2017-02-12T10:32:31.490Z,1035.729
2017-02-12T10:38:37.335Z,1035.879
2017-02-12T10:47:41.867Z,1035.941
2017-02-12T10:53:54.326Z,1035.900
2017-02-12T11:12:13.879Z,1035.792
2017-02-12T11:15:16.833Z,1035.803
2017-02-12T11:18:20.261Z,1035.838
2017-02-12T11:21:24.136Z,1035.811
2017-02-12T11:24:28.359Z,1035.775
2017-02-12T11:27:32.111Z,1035.723
2017-02-12T11:30:35.985Z,1035.725
2017-02-12T11:33:39.782Z,1035.732
2017-02-12T11:36:44.792Z,1035.730
2017-02-12T11:39:48.732Z,1035.639
2017-02-12T11:42:52.675Z,1035.675
2017-02-12T11:45:56.507Z,1035.705
2017-02-12T11:49:00.455Z,1035.756
2017-02-12T11:52:04.303Z,1035.744
2017-02-12T11:58:12.872Z,1035.802
2017-02-12T12:01:16.846Z,1035.864
2017-02-12T12:04:19.999Z,1035.843
2017-02-12T12:07:18.808Z,1035.826
2017-02-12T12:10:29.393Z,1035.832
2017-02-12T12:16:34.894Z,1035.849
2017-02-12T12:19:38.528Z,1035.838
2017-02-12T12:22:42.722Z,1035.869
2017-02-12T12:25:46.768Z,1035.927
2017-02-12T12:28:50.930Z,1035.916
2017-02-12T12:31:54.949Z,1035.904
2017-02-12T12:34:58.882Z,1035.920
2017-02-12T12:38:02.514Z,1035.999
2017-02-12T12:47:16.640Z,1036.066
2017-02-12T12:50:20.057Z,1036.121
2017-02-12T12:53:23.867Z,1036.241
2017-02-12T12:56:27.690Z,1036.286
2017-02-12T12:59:31.415Z,1036.260
2017-02-12T13:02:34.981Z,1036.256
2017-02-12T13:20:59.618Z,1036.252
2017-02-12T13:27:07.942Z,1036.286
2017-02-12T13:30:11.345Z,1036.285
2017-02-12T13:33:16.277Z,1036.293
2017-02-12T13:36:19.589Z,1036.329
2017-02-12T13:42:26.933Z,1036.356
2017-02-12T13:54:44.503Z,1036.400
2017-02-12T13:57:48.380Z,1036.411
2017-02-12T14:00:52.331Z,1036.461
2017-02-12T14:03:56.734Z,1036.431
2017-02-12T14:10:03.169Z,1036.385
2017-02-12T14:16:10.705Z,1036.401
2017-02-12T14:19:15.051Z,1036.505
2017-02-12T14:22:18.415Z,1036.524
2017-02-12T14:25:22.018Z,1036.511
2017-02-12T14:28:24.655Z,1036.466
2017-02-12T14:31:29.279Z,1036.385
2017-02-12T14:37:37.771Z,1036.357
2017-02-12T14:40:40.401Z,1036.303
2017-02-12T14:46:47.178Z,1036.274
2017-02-12T14:49:50.314Z,1036.315
2017-02-12T14:52:55.006Z,1036.368
2017-02-12T14:55:58.439Z,1036.349
2017-02-12T15:02:04.340Z,1036.307
2017-02-12T15:05:02.294Z,1036.338
2017-02-12T15:08:12.163Z,1036.359
2017-02-12T15:14:14.487Z,1036.321
2017-02-12T15:17:19.367Z,1036.284
2017-02-12T15:20:24.338Z,1036.239
2017-02-12T15:23:35.178Z,1036.229
2017-02-12T15:26:37.955Z,1036.259
2017-02-12T15:29:41.854Z,1036.288
2017-02-12T15:32:45.944Z,1036.353
2017-02-12T15:38:49.516Z,1036.316
2017-02-12T15:41:54.207Z,1036.341
2017-02-12T15:44:59.168Z,1036.398
2017-02-12T15:48:04.095Z,1036.406
2017-02-12T15:54:14.217Z,1036.347
2017-02-12T15:57:25.055Z,1036.373
2017-02-12T16:00:29.209Z,1036.372
2017-02-12T16:03:33.173Z,1036.399
2017-02-12T16:06:37.087Z,1036.408
2017-02-12T16:09:41.081Z,1036.367
2017-02-12T16:12:45.683Z,1036.335
2017-02-12T16:15:49.668Z,1036.346
2017-02-12T16:18:53.492Z,1036.410
2017-02-12T16:21:57.266Z,1036.404
2017-02-12T16:25:01.128Z,1036.427
2017-02-12T16:34:15.029Z,1036.586
2017-02-12T16:40:23.407Z,1036.788
2017-02-12T16:43:27.587Z,1036.816
2017-02-12T16:46:25.340Z,1036.909
2017-02-12T16:49:35.813Z,1036.991
2017-02-12T16:52:39.642Z,1037.064
2017-02-12T16:55:43.292Z,1037.073
2017-02-12T16:58:47.223Z,1037.143
2017-02-12T17:01:51.223Z,1037.137
2017-02-12T17:11:04.320Z,1037.296
2017-02-12T17:14:09.309Z,1037.282
2017-02-12T17:17:13.035Z,1037.323
2017-02-12T17:29:31.365Z,1037.540
2017-02-12T17:38:42.578Z,1037.606
2017-02-12T17:41:46.075Z,1037.504
2017-02-12T17:57:07.541Z,1037.452
2017-02-12T18:00:12.232Z,1037.446
2017-02-12T18:03:17.102Z,1037.563
2017-02-12T18:06:20.776Z,1037.603
2017-02-12T18:09:25.581Z,1037.638
2017-02-12T18:12:29.202Z,1037.655
2017-02-12T18:15:33.062Z,1037.653
2017-02-12T18:18:37.142Z,1037.654
2017-02-12T18:21:41.264Z,1037.597
2017-02-12T18:24:45.107Z,1037.532
2017-02-12T18:27:48.885Z,1037.534
2017-02-12T18:30:52.330Z,1037.572
2017-02-12T18:33:56.552Z,1037.601
2017-02-12T18:37:00.143Z,1037.664
2017-02-12T18:40:04.346Z,1037.753
2017-02-12T18:43:07.476Z,1037.730
2017-02-12T18:46:10.701Z,1037.800
2017-02-12T18:49:14.267Z,1037.862
2017-02-12T18:55:21.408Z,1037.974
2017-02-12T19:04:32.897Z,1037.951
2017-02-12T19:07:35.992Z,1037.852
2017-02-12T19:10:39.320Z,1037.874
2017-02-12T19:13:43.351Z,1037.950
2017-02-12T19:16:48.392Z,1038.042
2017-02-12T19:19:52.041Z,1038.080
2017-02-12T19:29:05.697Z,1038.147
2017-02-12T19:32:09.403Z,1038.175
2017-02-12T19:35:13.447Z,1038.239
2017-02-12T19:41:19.873Z,1038.268
2017-02-12T19:47:28.954Z,1038.289
2017-02-12T19:50:26.613Z,1038.313
2017-02-12T19:53:31.319Z,1038.268
2017-02-12T19:56:41.869Z,1038.274
2017-02-12T19:59:45.926Z,1038.314
2017-02-12T20:02:49.741Z,1038.268
2017-02-12T20:05:53.891Z,1038.283
2017-02-12T20:08:57.624Z,1038.261
2017-02-12T20:11:56.593Z,1038.279
2017-02-12T20:15:06.910Z,1038.316
2017-02-12T20:18:10.450Z,1038.313
2017-02-12T20:21:14.130Z,1038.338
2017-02-12T20:24:17.870Z,1038.367
2017-02-12T20:27:21.809Z,1038.346
2017-02-12T20:30:26.582Z,1038.317
2017-02-12T20:33:25.462Z,1038.320
2017-02-12T20:36:33.475Z,1038.378
2017-02-12T20:39:34.817Z,1038.343
2017-02-12T20:42:37.170Z,1038.356
2017-02-12T20:48:52.287Z,1038.361
2017-02-12T20:51:51.767Z,1038.352
2017-02-12T21:00:50.729Z,1038.381
2017-02-12T21:03:59.229Z,1038.385
2017-02-12T21:10:07.360Z,1038.372
2017-02-12T21:19:19.090Z,1038.331
2017-02-12T21:22:23.092Z,1038.330
2017-02-12T21:25:27.197Z,1038.347
2017-02-12T21:28:30.883Z,1038.388
2017-02-12T21:31:29.549Z,1038.372
2017-02-12T21:34:35.559Z,1038.425
2017-02-12T21:37:39.516Z,1038.392
2017-02-12T21:43:46.644Z,1038.328
2017-02-12T21:46:47.500Z,1038.271
2017-02-12T21:49:52.450Z,1038.237
2017-02-12T21:52:57.021Z,1038.275
2017-02-12T21:56:08.534Z,1038.282
2017-02-12T21:59:12.334Z,1038.269
2017-02-12T22:02:11.182Z,1038.312
2017-02-12T22:05:16.369Z,1038.338
2017-02-12T22:08:20.156Z,1038.352
2017-02-12T22:11:19.912Z,1038.376
2017-02-12T22:14:30.929Z,1038.399
2017-02-12T22:17:35.074Z,1038.413
2017-02-12T22:20:40.471Z,1038.433
2017-02-12T22:23:39.840Z,1038.457
2017-02-12T22:26:53.241Z,1038.459
2017-02-12T22:29:54.234Z,1038.468
2017-02-12T22:32:58.516Z,1038.514
2017-02-12T22:36:09.217Z,1038.537
2017-02-12T22:39:13.610Z,1038.514
2017-02-12T22:42:16.855Z,1038.531
2017-02-12T22:45:20.323Z,1038.523
2017-02-12T22:48:25.296Z,1038.526
2017-02-12T22:54:33.651Z,1038.534
2017-02-12T22:57:37.400Z,1038.522
2017-02-12T23:00:40.657Z,1038.542
2017-02-12T23:03:44.492Z,1038.563
2017-02-12T23:06:48.216Z,1038.594
2017-02-12T23:09:51.775Z,1038.562
2017-02-12T23:12:55.165Z,1038.588
2017-02-12T23:15:58.691Z,1038.664
2017-02-12T23:19:02.082Z,1038.701
2017-02-12T23:22:05.755Z,1038.666
2017-02-12T23:25:09.326Z,1038.685
2017-02-12T23:28:13.174Z,1038.699
2017-02-12T23:31:16.459Z,1038.761
2017-02-12T23:34:21.509Z,1038.778
2017-02-12T23:37:25.242Z,1038.788
2017-02-12T23:40:29.828Z,1038.753
2017-02-12T23:43:34.009Z,1038.752
2017-02-12T23:49:38.167Z,1038.783
2017-02-12T23:52:43.246Z,1038.835
2017-02-12T23:55:47.964Z,1038.869
